createdAt,value
2018-08-09T00:00:32.193Z,11.23
2018-08-09T00:03:00.446Z,8.30
2018-08-09T00:05:29.513Z,10.13
2018-08-09T00:07:57.737Z,11.00
2018-08-09T00:10:26.005Z,9.00
2018-08-09T00:12:54.258Z,10.90
2018-08-09T00:15:23.277Z,8.73
2018-08-09T00:17:51.521Z,15.33
2018-08-09T00:20:20.538Z,8.50
2018-08-09T00:22:48.790Z,15.37
2018-08-09T00:25:17.809Z,10.77
2018-08-09T00:27:46.082Z,13.07
2018-08-09T00:30:14.323Z,12.63
2018-08-09T00:32:42.572Z,10.60
2018-08-09T00:35:10.835Z,12.73
2018-08-09T00:37:39.086Z,9.47
2018-08-09T00:40:07.350Z,11.03
2018-08-09T00:42:35.610Z,12.47
2018-08-09T00:45:04.642Z,8.27
2018-08-09T00:47:32.911Z,7.87
2018-08-09T00:50:01.154Z,8.40
2018-08-09T00:52:30.191Z,11.03
2018-08-09T00:54:58.434Z,10.20
2018-08-09T00:57:26.697Z,11.97
2018-08-09T00:59:55.709Z,8.17
2018-08-09T01:02:24.308Z,11.67
2018-08-09T01:04:52.546Z,8.07
2018-08-09T01:07:21.570Z,8.67
2018-08-09T01:09:49.837Z,8.87
2018-08-09T01:12:18.090Z,10.33
2018-08-09T01:14:47.842Z,11.77
2018-08-09T01:17:16.095Z,13.07
2018-08-09T01:19:44.360Z,8.47
2018-08-09T01:22:13.367Z,10.97
2018-08-09T01:24:41.614Z,12.33
2018-08-09T01:27:10.638Z,10.80
2018-08-09T01:29:38.881Z,9.87
2018-08-09T01:32:08.026Z,11.07
2018-08-09T01:34:36.249Z,8.47
2018-08-09T01:37:05.566Z,9.27
2018-08-09T01:39:33.827Z,15.37
2018-08-09T01:42:02.821Z,9.60
2018-08-09T01:44:31.854Z,8.73
2018-08-09T01:47:00.098Z,10.17
2018-08-09T01:49:28.346Z,7.70
2018-08-09T01:51:56.970Z,11.03
2018-08-09T01:54:25.217Z,8.17
2018-08-09T01:56:54.224Z,9.27
2018-08-09T01:59:22.501Z,9.50
2018-08-09T02:01:50.854Z,11.23
2018-08-09T02:04:19.822Z,8.30
2018-08-09T02:06:48.065Z,14.40
2018-08-09T02:09:16.330Z,10.33
2018-08-09T02:11:44.604Z,8.20
2018-08-09T02:14:13.297Z,10.00
2018-08-09T02:16:41.565Z,13.20
2018-08-09T02:19:09.828Z,10.03
2018-08-09T02:21:38.116Z,12.27
2018-08-09T02:24:06.354Z,11.40
2018-08-09T02:26:35.390Z,9.10
2018-08-09T02:29:03.642Z,11.10
2018-08-09T02:31:31.918Z,13.43
2018-08-09T02:34:00.173Z,9.67
2018-08-09T02:36:28.430Z,8.60
2018-08-09T02:38:56.675Z,10.40
2018-08-09T02:41:24.982Z,13.43
2018-08-09T02:43:53.227Z,8.33
2018-08-09T02:46:21.466Z,10.37
2018-08-09T02:48:49.726Z,10.60
2018-08-09T02:51:18.772Z,9.83
2018-08-09T02:53:47.025Z,7.93
2018-08-09T02:56:15.278Z,11.47
2018-08-09T02:58:44.290Z,8.60
2018-08-09T03:01:12.543Z,9.87
2018-08-09T03:03:41.581Z,10.13
2018-08-09T03:06:09.830Z,9.17
2018-08-09T03:08:38.098Z,8.87
2018-08-09T03:11:07.130Z,8.67
2018-08-09T03:13:35.376Z,9.63
2018-08-09T03:16:03.650Z,11.03
2018-08-09T03:18:31.902Z,9.93
2018-08-09T03:21:00.915Z,10.90
2018-08-09T03:23:29.170Z,7.33
2018-08-09T03:25:58.178Z,9.87
2018-08-09T03:28:26.429Z,7.77
2018-08-09T03:30:55.466Z,9.87
2018-08-09T03:33:23.710Z,8.97
2018-08-09T03:35:52.733Z,12.33
2018-08-09T03:38:20.986Z,11.93
2018-08-09T03:40:49.244Z,8.90
2018-08-09T03:43:18.265Z,10.50
2018-08-09T03:45:46.530Z,7.07
2018-08-09T03:48:14.785Z,11.60
2018-08-09T03:50:43.806Z,10.27
2018-08-09T03:53:12.058Z,8.17
2018-08-09T03:55:41.298Z,8.13
2018-08-09T03:58:09.911Z,7.80
2018-08-09T04:00:38.508Z,12.63
2018-08-09T04:03:06.783Z,9.67
2018-08-09T04:05:35.031Z,8.70
2018-08-09T04:08:03.279Z,10.10
2018-08-09T04:10:32.313Z,11.50
2018-08-09T04:13:00.551Z,10.60
2018-08-09T04:15:29.794Z,9.47
2018-08-09T04:17:58.046Z,11.87
2018-08-09T04:20:26.302Z,11.23
2018-08-09T04:22:55.313Z,11.93
2018-08-09T04:25:23.574Z,10.73
2018-08-09T04:27:51.829Z,8.37
2018-08-09T04:30:20.075Z,11.60
2018-08-09T04:32:48.326Z,13.63
2018-08-09T04:35:16.586Z,10.67
2018-08-09T04:37:45.070Z,12.27
2018-08-09T04:40:13.305Z,7.90
2018-08-09T04:42:41.554Z,13.43
2018-08-09T04:45:09.797Z,9.83
2018-08-09T04:47:38.042Z,10.50
2018-08-09T04:50:07.073Z,10.47
2018-08-09T04:52:35.330Z,12.40
2018-08-09T04:55:03.581Z,11.83
2018-08-09T04:57:32.605Z,12.80
2018-08-09T05:00:00.857Z,12.80
2018-08-09T05:02:29.130Z,10.33
2018-08-09T05:04:58.125Z,10.10
2018-08-09T05:07:26.369Z,12.47
2018-08-09T05:09:54.781Z,10.83
2018-08-09T05:12:23.027Z,11.47
2018-08-09T05:14:51.274Z,11.30
2018-08-09T05:17:19.526Z,11.13
2018-08-09T05:19:47.805Z,13.23
2018-08-09T05:22:16.046Z,8.63
2018-08-09T05:24:45.062Z,10.20
2018-08-09T05:27:13.290Z,9.43
2018-08-09T05:29:41.548Z,9.87
2018-08-09T05:32:09.789Z,8.20
2018-08-09T05:34:38.047Z,12.63
2018-08-09T05:37:06.301Z,12.43
2018-08-09T05:39:35.344Z,10.07
2018-08-09T05:42:03.585Z,12.60
2018-08-09T05:44:32.609Z,14.67
2018-08-09T05:47:00.847Z,12.40
2018-08-09T05:49:29.869Z,10.73
2018-08-09T05:51:58.122Z,12.73
2018-08-09T05:54:26.365Z,10.77
2018-08-09T05:56:54.629Z,14.53
2018-08-09T05:59:22.873Z,10.50
2018-08-09T06:01:51.652Z,9.07
2018-08-09T06:04:19.892Z,14.67
2018-08-09T06:06:48.901Z,13.53
2018-08-09T06:09:17.257Z,14.07
2018-08-09T06:11:45.473Z,12.43
2018-08-09T06:14:13.974Z,11.13
2018-08-09T06:16:42.226Z,11.67
2018-08-09T06:19:10.471Z,11.27
2018-08-09T06:21:39.490Z,11.03
2018-08-09T06:24:07.734Z,12.47
2018-08-09T06:26:36.800Z,15.63
2018-08-09T06:29:04.997Z,14.13
2018-08-09T06:31:33.978Z,10.00
2018-08-09T06:34:02.252Z,13.70
2018-08-09T06:36:30.502Z,14.97
2018-08-09T06:38:58.775Z,11.20
2018-08-09T06:41:27.086Z,10.60
2018-08-09T06:43:55.297Z,10.77
2018-08-09T06:46:23.637Z,11.27
2018-08-09T06:48:51.951Z,8.93
2018-08-09T06:51:20.202Z,10.97
2018-08-09T06:53:49.244Z,10.73
2018-08-09T06:56:17.539Z,14.77
2018-08-09T06:58:46.043Z,12.57
2018-08-09T07:01:15.066Z,10.87
2018-08-09T07:03:43.341Z,15.13
2018-08-09T07:06:11.591Z,13.53
2018-08-09T07:08:39.898Z,12.93
2018-08-09T07:11:08.146Z,12.00
2018-08-09T07:13:37.177Z,12.23
2018-08-09T07:16:05.430Z,9.63
2018-08-09T07:18:33.675Z,10.57
2018-08-09T07:21:03.110Z,10.97
2018-08-09T07:23:31.358Z,9.60
2018-08-09T07:26:00.376Z,11.07
2018-08-09T07:28:28.641Z,9.60
2018-08-09T07:30:56.897Z,12.43
2018-08-09T07:33:25.914Z,12.07
2018-08-09T07:35:54.163Z,9.67
2018-08-09T07:38:23.195Z,12.50
2018-08-09T07:40:51.433Z,15.13
2018-08-09T07:43:20.461Z,14.17
2018-08-09T07:45:48.719Z,16.93
2018-08-09T07:48:16.981Z,12.00
2018-08-09T07:50:46.022Z,16.00
2018-08-09T07:53:14.266Z,13.60
2018-08-09T07:55:42.862Z,12.13
2018-08-09T07:58:11.117Z,10.83
2018-08-09T08:00:40.106Z,12.77
2018-08-09T08:03:08.377Z,9.73
2018-08-09T08:05:37.815Z,12.43
2018-08-09T08:08:06.052Z,11.07
2018-08-09T08:10:35.071Z,10.20
2018-08-09T08:13:03.332Z,10.00
2018-08-09T08:15:31.590Z,14.23
2018-08-09T08:18:00.609Z,9.30
2018-08-09T08:20:28.846Z,13.73
2018-08-09T08:22:57.914Z,11.17
2018-08-09T08:25:26.157Z,13.83
2018-08-09T08:27:54.411Z,11.83
2018-08-09T08:30:23.426Z,11.27
2018-08-09T08:32:51.673Z,15.20
2018-08-09T08:35:20.894Z,13.77
2018-08-09T08:37:49.133Z,12.10
2018-08-09T08:40:18.139Z,17.27
2018-08-09T08:42:47.169Z,11.67
2018-08-09T08:45:15.421Z,11.07
2018-08-09T08:47:44.588Z,14.77
2018-08-09T08:50:12.838Z,12.53
2018-08-09T08:52:41.082Z,11.93
2018-08-09T08:55:09.380Z,12.77
2018-08-09T08:57:37.605Z,9.33
2018-08-09T09:00:05.857Z,15.30
2018-08-09T09:02:34.919Z,10.30
2018-08-09T09:05:03.168Z,9.90
2018-08-09T09:07:32.174Z,14.50
2018-08-09T09:10:00.424Z,11.83
2018-08-09T09:12:28.680Z,16.27
2018-08-09T09:14:58.001Z,9.57
2018-08-09T09:17:26.248Z,13.40
2018-08-09T09:19:55.257Z,8.20
2018-08-09T09:22:23.861Z,13.23
2018-08-09T09:24:52.091Z,13.87
2018-08-09T09:27:21.110Z,11.13
2018-08-09T09:29:49.375Z,15.73
2018-08-09T09:32:18.371Z,15.80
2018-08-09T09:34:46.625Z,9.53
2018-08-09T09:37:14.878Z,14.43
2018-08-09T09:39:43.129Z,13.20
2018-08-09T09:42:11.400Z,10.87
2018-08-09T09:44:39.654Z,9.23
2018-08-09T09:47:07.918Z,14.33
2018-08-09T09:49:36.986Z,9.40
2018-08-09T09:52:05.227Z,17.23
2018-08-09T09:54:33.485Z,10.90
2018-08-09T09:57:02.238Z,10.60
2018-08-09T09:59:30.550Z,10.43
2018-08-09T10:01:58.885Z,11.50
2018-08-09T10:04:27.079Z,9.60
2018-08-09T10:06:55.459Z,10.17
2018-08-09T10:09:23.710Z,9.40
2018-08-09T10:11:51.988Z,8.83
2018-08-09T10:14:20.231Z,9.47
2018-08-09T10:16:48.475Z,8.90
2018-08-09T10:19:16.770Z,11.90
2018-08-09T10:21:45.103Z,8.90
2018-08-09T10:24:14.142Z,11.63
2018-08-09T10:26:42.374Z,6.80
2018-08-09T10:29:10.638Z,10.53
2018-08-09T10:31:40.669Z,9.70
2018-08-09T10:34:08.954Z,8.13
2018-08-09T10:36:37.206Z,8.80
2018-08-09T10:39:06.251Z,8.40
2018-08-09T10:41:34.518Z,12.03
2018-08-09T10:44:02.777Z,11.50
2018-08-09T10:46:31.056Z,11.17
2018-08-09T10:48:59.332Z,11.70
2018-08-09T10:51:28.071Z,8.77
2018-08-09T10:53:56.321Z,7.27
2018-08-09T10:56:24.564Z,10.30
2018-08-09T10:58:52.818Z,10.80
2018-08-09T11:01:21.104Z,9.27
2018-08-09T11:03:49.383Z,7.33
2018-08-09T11:06:17.661Z,7.80
2018-08-09T11:08:46.344Z,10.00
2018-08-09T11:11:14.592Z,10.40
2018-08-09T11:13:43.890Z,9.87
2018-08-09T11:16:12.920Z,7.70
2018-08-09T11:18:41.170Z,9.37
2018-08-09T11:21:10.366Z,8.70
2018-08-09T11:23:39.432Z,8.60
2018-08-09T11:26:07.646Z,7.73
2018-08-09T11:28:35.926Z,7.47
2018-08-09T11:31:04.183Z,11.03
2018-08-09T11:33:33.515Z,10.20
2018-08-09T11:36:01.762Z,12.23
2018-08-09T11:38:30.019Z,11.43
2018-08-09T11:40:59.086Z,9.53
2018-08-09T11:43:27.634Z,8.83
2018-08-09T11:45:55.874Z,7.07
2018-08-09T11:48:24.892Z,6.70
2018-08-09T11:50:53.168Z,9.53
2018-08-09T11:53:21.429Z,9.40
2018-08-09T11:55:49.682Z,9.27
2018-08-09T11:58:18.708Z,8.10
2018-08-09T12:00:47.072Z,9.87
2018-08-09T12:03:16.157Z,8.73
2018-08-09T12:05:44.390Z,8.53
2018-08-09T12:08:12.649Z,8.30
2018-08-09T12:10:40.905Z,6.30
2018-08-09T12:13:09.160Z,12.03
2018-08-09T12:15:38.231Z,5.53
2018-08-09T12:18:06.493Z,5.60
2018-08-09T12:20:34.794Z,5.57
2018-08-09T12:23:03.026Z,11.63
2018-08-09T12:25:31.291Z,7.70
2018-08-09T12:27:59.766Z,5.30
2018-08-09T12:30:28.815Z,12.17
2018-08-09T12:32:57.020Z,15.30
2018-08-09T12:35:25.282Z,10.30
2018-08-09T12:37:53.548Z,26.83
2018-08-09T12:40:22.573Z,26.87
2018-08-09T12:42:50.835Z,23.27
2018-08-09T12:45:19.196Z,31.07
2018-08-09T12:47:47.416Z,14.40
2018-08-09T12:50:15.679Z,23.77
2018-08-09T12:52:43.951Z,16.03
2018-08-09T12:55:12.201Z,11.37
2018-08-09T12:57:40.460Z,16.37
2018-08-09T13:00:09.790Z,12.10
2018-08-09T13:02:37.970Z,8.50
2018-08-09T13:05:06.247Z,8.60
2018-08-09T13:07:34.788Z,6.10
2018-08-09T13:10:03.030Z,8.37
2018-08-09T13:12:31.311Z,5.47
2018-08-09T13:14:59.550Z,7.67
2018-08-09T13:17:27.810Z,5.87
2018-08-09T13:19:56.078Z,7.63
2018-08-09T13:22:25.103Z,5.63
2018-08-09T13:24:53.356Z,14.17
2018-08-09T13:27:21.643Z,10.83
2018-08-09T13:29:49.905Z,8.57
2018-08-09T13:32:18.172Z,5.90
2018-08-09T13:34:46.438Z,9.00
2018-08-09T13:37:15.495Z,4.83
2018-08-09T13:39:43.738Z,7.70
2018-08-09T13:42:12.005Z,14.03
2018-08-09T13:44:40.271Z,10.03
2018-08-09T13:47:08.524Z,9.17
2018-08-09T13:49:37.558Z,5.33
2018-08-09T13:52:05.814Z,7.97
2018-08-09T13:54:34.227Z,8.13
2018-08-09T13:57:02.499Z,6.20
2018-08-09T13:59:30.752Z,10.90
2018-08-09T14:01:59.063Z,17.80
2018-08-09T14:04:27.344Z,11.63
2018-08-09T14:06:55.654Z,7.97
2018-08-09T14:09:24.691Z,13.83
2018-08-09T14:11:52.966Z,11.00
2018-08-09T14:14:22.030Z,13.93
2018-08-09T14:16:50.312Z,13.53
2018-08-09T14:19:18.585Z,12.27
2018-08-09T14:21:47.085Z,10.40
2018-08-09T14:24:15.328Z,15.00
2018-08-09T14:26:43.595Z,6.00
2018-08-09T14:29:11.996Z,11.53
2018-08-09T14:31:40.260Z,9.20
2018-08-09T14:34:09.271Z,11.10
2018-08-09T14:36:37.517Z,8.70
2018-08-09T14:39:06.544Z,9.63
2018-08-09T14:41:35.123Z,10.27
2018-08-09T14:44:03.383Z,6.57
2018-08-09T14:46:31.653Z,13.63
2018-08-09T14:48:59.926Z,9.17
2018-08-09T14:51:28.191Z,7.90
2018-08-09T14:53:57.207Z,7.13
2018-08-09T14:56:25.468Z,4.43
2018-08-09T14:58:54.471Z,7.63
2018-08-09T15:01:22.740Z,5.90
2018-08-09T15:03:50.994Z,7.57
2018-08-09T15:06:20.233Z,7.77
2018-08-09T15:08:48.481Z,6.50
2018-08-09T15:11:17.497Z,7.10
2018-08-09T15:13:45.871Z,5.77
2018-08-09T15:16:14.123Z,7.57
2018-08-09T15:18:43.154Z,8.83
2018-08-09T15:21:11.682Z,5.27
2018-08-09T15:23:40.715Z,10.87
2018-08-09T15:26:08.994Z,6.67
2018-08-09T15:28:37.257Z,6.37
2018-08-09T15:31:05.494Z,5.80
2018-08-09T15:33:33.722Z,6.57
2018-08-09T15:36:02.311Z,4.70
2018-08-09T15:38:30.556Z,7.97
2018-08-09T15:40:58.805Z,5.63
2018-08-09T15:43:27.129Z,6.37
2018-08-09T15:45:55.390Z,6.17
2018-08-09T15:48:23.646Z,6.30
2018-08-09T15:50:52.679Z,5.40
2018-08-09T15:53:20.973Z,5.30
2018-08-09T15:55:49.243Z,8.13
2018-08-09T15:58:17.506Z,5.97
2018-08-09T16:00:46.079Z,7.83
2018-08-09T16:03:14.347Z,6.37
2018-08-09T16:05:43.282Z,5.90
2018-08-09T16:08:11.820Z,9.87
2018-08-09T16:10:40.071Z,6.53
2018-08-09T16:13:09.139Z,9.17
2018-08-09T16:15:37.387Z,8.13
2018-08-09T16:18:05.956Z,6.13
2018-08-09T16:20:34.233Z,5.50
2018-08-09T16:23:02.469Z,6.73
2018-08-09T16:25:31.518Z,6.87
2018-08-09T16:27:59.793Z,7.63
2018-08-09T16:30:28.854Z,7.00
2018-08-09T16:32:57.325Z,5.77
2018-08-09T16:35:25.585Z,6.40
2018-08-09T16:37:54.608Z,7.57
2018-08-09T16:40:22.893Z,6.80
2018-08-09T16:42:51.963Z,3.77
2018-08-09T16:45:20.247Z,6.20
2018-08-09T16:47:48.513Z,6.10
2018-08-09T16:50:17.089Z,4.77
2018-08-09T16:52:46.189Z,8.07
2018-08-09T16:55:14.448Z,7.53
2018-08-09T16:57:43.494Z,7.57
2018-08-09T17:00:11.828Z,8.77
2018-08-09T17:02:41.161Z,8.23
2018-08-09T17:05:09.427Z,7.60
2018-08-09T17:07:37.670Z,6.03
2018-08-09T17:10:05.950Z,8.07
2018-08-09T17:12:34.966Z,7.30
2018-08-09T17:15:03.512Z,4.47
2018-08-09T17:17:32.535Z,5.57
2018-08-09T17:20:01.998Z,5.93
2018-08-09T17:22:30.283Z,5.03
2018-08-09T17:24:59.702Z,5.83
2018-08-09T17:27:28.005Z,7.13
2018-08-09T17:29:56.259Z,5.00
2018-08-09T17:32:24.506Z,5.23
2018-08-09T17:34:52.761Z,5.27
2018-08-09T17:37:21.073Z,5.03
2018-08-09T17:39:50.055Z,3.93
2018-08-09T17:42:19.092Z,3.40
2018-08-09T17:44:47.331Z,5.33
2018-08-09T17:47:15.594Z,4.80
2018-08-09T17:49:44.654Z,5.53
2018-08-09T17:52:12.956Z,4.47
2018-08-09T17:54:41.179Z,3.90
2018-08-09T17:57:09.446Z,3.97
2018-08-09T17:59:37.710Z,6.33
2018-08-09T18:02:06.095Z,5.87
2018-08-09T18:04:34.330Z,5.10
2018-08-09T18:07:02.622Z,5.33
2018-08-09T18:09:31.838Z,3.83
2018-08-09T18:12:00.082Z,6.77
2018-08-09T18:14:29.152Z,4.73
2018-08-09T18:16:57.390Z,3.13
2018-08-09T18:19:25.645Z,3.83
2018-08-09T18:21:53.902Z,4.20
2018-08-09T18:24:22.918Z,6.60
2018-08-09T18:26:51.201Z,4.80
2018-08-09T18:29:19.448Z,3.83
2018-08-09T18:31:47.954Z,5.57
2018-08-09T18:34:16.206Z,3.90
2018-08-09T18:36:45.220Z,3.77
2018-08-09T18:39:13.475Z,5.40
2018-08-09T18:41:42.510Z,5.93
2018-08-09T18:44:10.961Z,3.87
2018-08-09T18:46:39.210Z,8.27
2018-08-09T18:49:07.461Z,2.87
2018-08-09T18:51:35.744Z,3.23
2018-08-09T18:54:03.997Z,6.37
2018-08-09T18:56:32.496Z,4.60
2018-08-09T18:59:00.766Z,5.23
2018-08-09T19:01:29.030Z,6.10
2018-08-09T19:03:57.283Z,3.93
2018-08-09T19:06:25.519Z,4.50
2018-08-09T19:08:54.603Z,4.60
2018-08-09T19:11:22.848Z,4.33
2018-08-09T19:13:51.134Z,2.67
2018-08-09T19:16:19.527Z,2.90
2018-08-09T19:18:47.782Z,3.63
2018-08-09T19:21:16.052Z,3.37
2018-08-09T19:23:44.296Z,5.37
2018-08-09T19:26:13.582Z,2.83
2018-08-09T19:28:42.596Z,3.33
2018-08-09T19:31:10.849Z,2.63
2018-08-09T19:33:39.108Z,2.50
2018-08-09T19:36:07.142Z,2.40
2018-08-09T19:38:41.408Z,3.93
2018-08-09T19:41:15.586Z,3.20
2018-08-09T19:43:49.807Z,3.50
2018-08-09T19:46:24.056Z,6.30
2018-08-09T19:48:58.290Z,3.27
2018-08-09T19:51:32.542Z,4.20
2018-08-09T19:54:07.430Z,2.37
2018-08-09T19:56:41.553Z,2.17
2018-08-09T19:59:15.758Z,4.40
2018-08-09T20:01:49.869Z,2.07
2018-08-09T20:04:24.095Z,1.57
2018-08-09T20:06:58.342Z,1.73
2018-08-09T20:09:32.588Z,1.60
2018-08-09T20:12:06.976Z,2.00
2018-08-09T20:14:41.038Z,2.30
2018-08-09T20:17:15.106Z,1.27
2018-08-09T20:19:49.346Z,2.67
2018-08-09T20:22:23.595Z,1.87
2018-08-09T20:24:51.849Z,2.13
2018-08-09T20:27:20.116Z,2.40
2018-08-09T20:29:49.204Z,1.60
2018-08-09T20:32:17.372Z,2.03
2018-08-09T20:34:46.385Z,3.00
2018-08-09T20:37:14.618Z,4.03
2018-08-09T20:39:42.878Z,1.67
2018-08-09T20:42:11.941Z,2.80
2018-08-09T20:44:40.191Z,3.27
2018-08-09T20:47:09.231Z,3.57
2018-08-09T20:49:37.526Z,2.90
2018-08-09T20:52:05.694Z,1.93
2018-08-09T20:54:33.958Z,3.43
2018-08-09T20:57:02.207Z,2.47
2018-08-09T20:59:30.455Z,1.73
2018-08-09T21:01:59.501Z,1.87
2018-08-09T21:04:27.729Z,1.60
2018-08-09T21:06:55.977Z,2.13
2018-08-09T21:09:24.245Z,2.90
2018-08-09T21:11:52.500Z,1.80
2018-08-09T21:14:20.733Z,2.53
2018-08-09T21:16:48.987Z,2.23
2018-08-09T21:19:17.989Z,3.63
2018-08-09T21:21:46.230Z,2.10
2018-08-09T21:24:14.507Z,1.70
2018-08-09T21:26:42.741Z,2.97
2018-08-09T21:29:11.012Z,2.47
2018-08-09T21:31:39.242Z,5.07
2018-08-09T21:34:08.258Z,2.00
2018-08-09T21:36:36.498Z,1.80
2018-08-09T21:39:04.746Z,2.50
2018-08-09T21:41:32.986Z,2.40
2018-08-09T21:44:01.242Z,1.97
2018-08-09T21:46:30.272Z,4.00
2018-08-09T21:48:58.502Z,2.60
2018-08-09T21:51:27.521Z,6.33
2018-08-09T21:53:55.766Z,1.73
2018-08-09T21:56:24.805Z,1.97
2018-08-09T21:58:53.057Z,3.70
2018-08-09T22:01:21.311Z,4.07
2018-08-09T22:03:49.557Z,4.83
2018-08-09T22:06:35.509Z,1.70
2018-08-09T22:09:18.647Z,8.93
2018-08-09T22:12:01.767Z,9.93
2018-08-09T22:14:36.369Z,1.40
2018-08-09T22:20:16.506Z,2.62
2018-08-09T22:22:44.751Z,2.23
2018-08-09T22:25:13.004Z,1.27
2018-08-09T22:27:41.239Z,4.63
2018-08-09T22:30:09.474Z,1.50
2018-08-09T22:32:37.722Z,2.30
2018-08-09T22:35:05.971Z,2.30
2018-08-09T22:37:34.987Z,1.83
2018-08-09T22:40:03.226Z,1.20
2018-08-09T22:42:31.473Z,3.90
2018-08-09T22:44:59.781Z,2.33
2018-08-09T22:47:27.994Z,1.93
2018-08-09T22:49:56.230Z,3.37
2018-08-09T22:52:25.251Z,1.53
2018-08-09T22:54:53.498Z,1.40
2018-08-09T22:57:22.551Z,1.83
2018-08-09T22:59:50.801Z,1.10
2018-08-09T23:02:19.064Z,1.67
2018-08-09T23:04:47.307Z,1.97
2018-08-09T23:07:15.563Z,1.13
2018-08-09T23:09:43.801Z,2.00
2018-08-09T23:12:12.054Z,1.93
2018-08-09T23:14:41.078Z,2.97
2018-08-09T23:17:09.334Z,2.53
2018-08-09T23:19:37.582Z,1.83
2018-08-09T23:22:05.810Z,2.50
2018-08-09T23:24:34.073Z,1.00
2018-08-09T23:27:02.309Z,2.73
2018-08-09T23:29:31.343Z,3.60
2018-08-09T23:31:59.578Z,6.13
2018-08-09T23:34:28.601Z,2.87
2018-08-09T23:36:56.846Z,1.13
2018-08-09T23:39:25.863Z,0.97
2018-08-09T23:41:54.113Z,1.27
2018-08-09T23:44:23.114Z,2.53
2018-08-09T23:46:51.368Z,2.77
2018-08-09T23:49:19.602Z,0.90
2018-08-09T23:51:48.636Z,1.40
2018-08-09T23:54:16.877Z,1.33
2018-08-09T23:56:45.905Z,4.00
2018-08-09T23:59:14.137Z,1.10
